<?xml version="1.0" encoding="utf-8"?>
<gpx xmlns:xsi="http://www.w3.org/2001/XMLSchema-instance" xmlns:xsd="http://www.w3.org/2001/XMLSchema" version="1.1" creator="Shapelink.com" xmlns="http://www.topografix.com/GPX/1/1" xmlns:gpxtpx="http://www.garmin.com/xmlschemas/TrackPointExtension/v1">
  <metadata>
    <name>Cykling 8.41 km, 2019-07-14</name>
    <desc></desc>
    <author><name>Marian Moron</name></author> 
    <time>2019-07-14T10:52:16Z</time>
  </metadata>
  <trk>
    <name>Cykling 8.41 km, 2019-07-14</name>
    <trkseg>
      <trkpt lat="51.228784002989" lon="4.448718235424">
        <ele>11.8</ele>
        <time>2019-07-14T10:52:16Z</time>
      </trkpt>
      <trkpt lat="51.228808059042" lon="4.448693173543">
        <ele>11.2</ele>
        <time>2019-07-14T10:52:18Z</time>
      </trkpt>
      <trkpt lat="51.228945103107" lon="4.448543724266">
        <ele>11</ele>
        <time>2019-07-14T10:52:30Z</time>
      </trkpt>
      <trkpt lat="51.228671098796" lon="4.447809721283">
        <ele>0</ele>
        <time>2019-07-14T10:52:48Z</time>
      </trkpt>
      <trkpt lat="51.228339343194" lon="4.447137911998">
        <ele>0</ele>
        <time>2019-07-14T10:53:02Z</time>
      </trkpt>
      <trkpt lat="51.228710074631" lon="4.446483620884">
        <ele>1.8</ele>
        <time>2019-07-14T10:53:17Z</time>
      </trkpt>
      <trkpt lat="51.229098743334" lon="4.445845506837">
        <ele>8.8</ele>
        <time>2019-07-14T10:53:31Z</time>
      </trkpt>
      <trkpt lat="51.229488501684" lon="4.445195909587">
        <ele>12.8</ele>
        <time>2019-07-14T10:53:45Z</time>
      </trkpt>
      <trkpt lat="51.229718836296" lon="4.444878989948">
        <ele>9.8</ele>
        <time>2019-07-14T10:53:56Z</time>
      </trkpt>
      <trkpt lat="51.229477018481" lon="4.444076590661">
        <ele>3.8</ele>
        <time>2019-07-14T10:54:14Z</time>
      </trkpt>
      <trkpt lat="51.229421446484" lon="4.443504274529">
        <ele>2.2</ele>
        <time>2019-07-14T10:54:28Z</time>
      </trkpt>
      <trkpt lat="51.229325306091" lon="4.443106721012">
        <ele>0</ele>
        <time>2019-07-14T10:54:38Z</time>
      </trkpt>
      <trkpt lat="51.229327653023" lon="4.443113677989">
        <ele>0</ele>
        <time>2019-07-14T10:54:45Z</time>
      </trkpt>
      <trkpt lat="51.22928934774" lon="4.443034133758">
        <ele>0</ele>
        <time>2019-07-14T10:54:52Z</time>
      </trkpt>
      <trkpt lat="51.228902774512" lon="4.442339860981">
        <ele>0</ele>
        <time>2019-07-14T10:55:10Z</time>
      </trkpt>
      <trkpt lat="51.228508238479" lon="4.441672242646">
        <ele>0</ele>
        <time>2019-07-14T10:55:19Z</time>
      </trkpt>
      <trkpt lat="51.228425425307" lon="4.441547100879">
        <ele>0</ele>
        <time>2019-07-14T10:55:21Z</time>
      </trkpt>
      <trkpt lat="51.228344539972" lon="4.441423635492">
        <ele>0</ele>
        <time>2019-07-14T10:55:23Z</time>
      </trkpt>
      <trkpt lat="51.228040863735" lon="4.440792981336">
        <ele>0</ele>
        <time>2019-07-14T10:55:32Z</time>
      </trkpt>
      <trkpt lat="51.227907088611" lon="4.44066105023">
        <ele>0</ele>
        <time>2019-07-14T10:55:35Z</time>
      </trkpt>
      <trkpt lat="51.227614811758" lon="4.440054535946">
        <ele>0</ele>
        <time>2019-07-14T10:55:44Z</time>
      </trkpt>
      <trkpt lat="51.227294874635" lon="4.439299159118">
        <ele>0</ele>
        <time>2019-07-14T10:55:55Z</time>
      </trkpt>
      <trkpt lat="51.227038220857" lon="4.438796328937">
        <ele>0</ele>
        <time>2019-07-14T10:56:03Z</time>
      </trkpt>
      <trkpt lat="51.226907714674" lon="4.438204650616">
        <ele>0</ele>
        <time>2019-07-14T10:56:10Z</time>
      </trkpt>
      <trkpt lat="51.226766144383" lon="4.437336453414">
        <ele>0</ele>
        <time>2019-07-14T10:56:21Z</time>
      </trkpt>
      <trkpt lat="51.22674879385" lon="4.437271493689">
        <ele>0</ele>
        <time>2019-07-14T10:56:22Z</time>
      </trkpt>
      <trkpt lat="51.226695484966" lon="4.437147441569">
        <ele>0</ele>
        <time>2019-07-14T10:56:24Z</time>
      </trkpt>
      <trkpt lat="51.226576881081" lon="4.436658525342">
        <ele>0</ele>
        <time>2019-07-14T10:56:35Z</time>
      </trkpt>
      <trkpt lat="51.226430197831" lon="4.436581998595">
        <ele>0</ele>
        <time>2019-07-14T10:56:45Z</time>
      </trkpt>
      <trkpt lat="51.226439837016" lon="4.436515446309">
        <ele>0</ele>
        <time>2019-07-14T10:56:48Z</time>
      </trkpt>
      <trkpt lat="51.226907044122" lon="4.436625752113">
        <ele>0</ele>
        <time>2019-07-14T10:57:05Z</time>
      </trkpt>
      <trkpt lat="51.227176689845" lon="4.435920415228">
        <ele>0.2</ele>
        <time>2019-07-14T10:57:21Z</time>
      </trkpt>
      <trkpt lat="51.227573656629" lon="4.435263861001">
        <ele>2.4</ele>
        <time>2019-07-14T10:57:33Z</time>
      </trkpt>
      <trkpt lat="51.22772360882" lon="4.434870079339">
        <ele>2</ele>
        <time>2019-07-14T10:57:39Z</time>
      </trkpt>
      <trkpt lat="51.2279348327" lon="4.434011856598">
        <ele>0</ele>
        <time>2019-07-14T10:57:51Z</time>
      </trkpt>
      <trkpt lat="51.22804463559" lon="4.433174756245">
        <ele>3.4</ele>
        <time>2019-07-14T10:58:07Z</time>
      </trkpt>
      <trkpt lat="51.228241274964" lon="4.432301697541">
        <ele>8.8</ele>
        <time>2019-07-14T10:58:18Z</time>
      </trkpt>
      <trkpt lat="51.228405476385" lon="4.43142335824">
        <ele>7.4</ele>
        <time>2019-07-14T10:58:28Z</time>
      </trkpt>
      <trkpt lat="51.228620639758" lon="4.430589610647">
        <ele>4</ele>
        <time>2019-07-14T10:58:39Z</time>
      </trkpt>
      <trkpt lat="51.228705464586" lon="4.430254250828">
        <ele>3.4</ele>
        <time>2019-07-14T10:58:44Z</time>
      </trkpt>
      <trkpt lat="51.228765646628" lon="4.429960549052">
        <ele>2.4</ele>
        <time>2019-07-14T10:58:48Z</time>
      </trkpt>
      <trkpt lat="51.228958346509" lon="4.429145912191">
        <ele>2</ele>
        <time>2019-07-14T10:58:58Z</time>
      </trkpt>
      <trkpt lat="51.229192620614" lon="4.428322809611">
        <ele>1</ele>
        <time>2019-07-14T10:59:08Z</time>
      </trkpt>
      <trkpt lat="51.229391942196" lon="4.427477578815">
        <ele>0</ele>
        <time>2019-07-14T10:59:19Z</time>
      </trkpt>
      <trkpt lat="51.229573997064" lon="4.426644753231">
        <ele>0</ele>
        <time>2019-07-14T10:59:30Z</time>
      </trkpt>
      <trkpt lat="51.229651110544" lon="4.426229597724">
        <ele>0</ele>
        <time>2019-07-14T10:59:35Z</time>
      </trkpt>
      <trkpt lat="51.229699306469" lon="4.426081741008">
        <ele>0</ele>
        <time>2019-07-14T10:59:37Z</time>
      </trkpt>
      <trkpt lat="51.229766445488" lon="4.42596255039">
        <ele>0</ele>
        <time>2019-07-14T10:59:39Z</time>
      </trkpt>
      <trkpt lat="51.229947829804" lon="4.425723582421">
        <ele>0</ele>
        <time>2019-07-14T10:59:44Z</time>
      </trkpt>
      <trkpt lat="51.230003066525" lon="4.42561051059">
        <ele>0</ele>
        <time>2019-07-14T10:59:46Z</time>
      </trkpt>
      <trkpt lat="51.230041623265" lon="4.425488553945">
        <ele>0</ele>
        <time>2019-07-14T10:59:48Z</time>
      </trkpt>
      <trkpt lat="51.230094345416" lon="4.425226116656">
        <ele>0</ele>
        <time>2019-07-14T10:59:52Z</time>
      </trkpt>
      <trkpt lat="51.230237675906" lon="4.424529580766">
        <ele>0</ele>
        <time>2019-07-14T11:00:02Z</time>
      </trkpt>
      <trkpt lat="51.230248153281" lon="4.423656186786">
        <ele>1.6</ele>
        <time>2019-07-14T11:00:13Z</time>
      </trkpt>
      <trkpt lat="51.230169111964" lon="4.422768040662">
        <ele>1</ele>
        <time>2019-07-14T11:00:23Z</time>
      </trkpt>
      <trkpt lat="51.230138266572" lon="4.422275687856">
        <ele>0</ele>
        <time>2019-07-14T11:00:29Z</time>
      </trkpt>
      <trkpt lat="51.230133237432" lon="4.421485526143">
        <ele>2</ele>
        <time>2019-07-14T11:00:42Z</time>
      </trkpt>
      <trkpt lat="51.230154527458" lon="4.420557482175">
        <ele>2.8</ele>
        <time>2019-07-14T11:00:53Z</time>
      </trkpt>
      <trkpt lat="51.230227533807" lon="4.419891707858">
        <ele>2.8</ele>
        <time>2019-07-14T11:01:02Z</time>
      </trkpt>
      <trkpt lat="51.230364996967" lon="4.419003226458">
        <ele>2.4</ele>
        <time>2019-07-14T11:01:13Z</time>
      </trkpt>
      <trkpt lat="51.230457952238" lon="4.418291770786">
        <ele>2</ele>
        <time>2019-07-14T11:01:23Z</time>
      </trkpt>
      <trkpt lat="51.23052903075" lon="4.417542261288">
        <ele>2.8</ele>
        <time>2019-07-14T11:01:32Z</time>
      </trkpt>
      <trkpt lat="51.230617459795" lon="4.416642296685">
        <ele>5.2</ele>
        <time>2019-07-14T11:01:43Z</time>
      </trkpt>
      <trkpt lat="51.230653166689" lon="4.4157357942">
        <ele>6.2</ele>
        <time>2019-07-14T11:01:54Z</time>
      </trkpt>
      <trkpt lat="51.230662219141" lon="4.414831219552">
        <ele>9.4</ele>
        <time>2019-07-14T11:02:06Z</time>
      </trkpt>
      <trkpt lat="51.230636738165" lon="4.414444813962">
        <ele>9.6</ele>
        <time>2019-07-14T11:02:12Z</time>
      </trkpt>
      <trkpt lat="51.230639839468" lon="4.413586339764">
        <ele>7</ele>
        <time>2019-07-14T11:02:25Z</time>
      </trkpt>
      <trkpt lat="51.230652915232" lon="4.413366901622">
        <ele>0</ele>
        <time>2019-07-14T11:02:33Z</time>
      </trkpt>
      <trkpt lat="51.230499610281" lon="4.412509936166">
        <ele>16.4</ele>
        <time>2019-07-14T11:02:48Z</time>
      </trkpt>
      <trkpt lat="51.230518301918" lon="4.412374987576">
        <ele>21.4</ele>
        <time>2019-07-14T11:02:53Z</time>
      </trkpt>
      <trkpt lat="51.230826085286" lon="4.412951159382">
        <ele>112.4</ele>
        <time>2019-07-14T11:03:29Z</time>
      </trkpt>
      <trkpt lat="51.230447055768" lon="4.412031748771">
        <ele>58.6</ele>
        <time>2019-07-14T11:03:34Z</time>
      </trkpt>
      <trkpt lat="51.230701446433" lon="4.411553393738">
        <ele>47.2</ele>
        <time>2019-07-14T11:03:53Z</time>
      </trkpt>
      <trkpt lat="51.230717791138" lon="4.411526906934">
        <ele>46.8</ele>
        <time>2019-07-14T11:03:54Z</time>
      </trkpt>
      <trkpt lat="51.230864474388" lon="4.410661978673">
        <ele>13</ele>
        <time>2019-07-14T11:04:10Z</time>
      </trkpt>
      <trkpt lat="51.230883166025" lon="4.40976620502">
        <ele>0</ele>
        <time>2019-07-14T11:04:23Z</time>
      </trkpt>
      <trkpt lat="51.230848967873" lon="4.408901360578">
        <ele>0</ele>
        <time>2019-07-14T11:04:35Z</time>
      </trkpt>
      <trkpt lat="51.23084502838" lon="4.408622494765">
        <ele>0</ele>
        <time>2019-07-14T11:04:39Z</time>
      </trkpt>
      <trkpt lat="51.230860451076" lon="4.408475895334">
        <ele>0</ele>
        <time>2019-07-14T11:04:41Z</time>
      </trkpt>
      <trkpt lat="51.231057341907" lon="4.407665533242">
        <ele>4.6</ele>
        <time>2019-07-14T11:04:52Z</time>
      </trkpt>
      <trkpt lat="51.231081230322" lon="4.407527567168">
        <ele>6.6</ele>
        <time>2019-07-14T11:04:54Z</time>
      </trkpt>
      <trkpt lat="51.231085085996" lon="4.406624417443">
        <ele>10.2</ele>
        <time>2019-07-14T11:05:06Z</time>
      </trkpt>
      <trkpt lat="51.231107214212" lon="4.405733337654">
        <ele>4.4</ele>
        <time>2019-07-14T11:05:17Z</time>
      </trkpt>
      <trkpt lat="51.231115847569" lon="4.404860781864">
        <ele>0</ele>
        <time>2019-07-14T11:05:28Z</time>
      </trkpt>
      <trkpt lat="51.231122301632" lon="4.404351078525">
        <ele>0</ele>
        <time>2019-07-14T11:05:35Z</time>
      </trkpt>
      <trkpt lat="51.231067735463" lon="4.403471817215">
        <ele>0</ele>
        <time>2019-07-14T11:05:49Z</time>
      </trkpt>
      <trkpt lat="51.231072513146" lon="4.40305062674">
        <ele>3.2</ele>
        <time>2019-07-14T11:06:00Z</time>
      </trkpt>
      <trkpt lat="51.231077458467" lon="4.403046603428">
        <ele>3.4</ele>
        <time>2019-07-14T11:06:01Z</time>
      </trkpt>
      <trkpt lat="51.231034375501" lon="4.40293160376">
        <ele>2.8</ele>
        <time>2019-07-14T11:07:53Z</time>
      </trkpt>
      <trkpt lat="51.230991124897" lon="4.402638907812">
        <ele>5</ele>
        <time>2019-07-14T11:08:01Z</time>
      </trkpt>
      <trkpt lat="51.230469770717" lon="4.402310840246">
        <ele>6.2</ele>
        <time>2019-07-14T11:08:19Z</time>
      </trkpt>
      <trkpt lat="51.229931820375" lon="4.402035746288">
        <ele>6.2</ele>
        <time>2019-07-14T11:08:29Z</time>
      </trkpt>
      <trkpt lat="51.229395378775" lon="4.401855703076">
        <ele>5.8</ele>
        <time>2019-07-14T11:08:39Z</time>
      </trkpt>
      <trkpt lat="51.228808645775" lon="4.40186291151">
        <ele>3.4</ele>
        <time>2019-07-14T11:08:50Z</time>
      </trkpt>
      <trkpt lat="51.228254350728" lon="4.401847153538">
        <ele>0</ele>
        <time>2019-07-14T11:08:59Z</time>
      </trkpt>
      <trkpt lat="51.227709108133" lon="4.401546327147">
        <ele>0</ele>
        <time>2019-07-14T11:09:07Z</time>
      </trkpt>
      <trkpt lat="51.227248858004" lon="4.401087166665">
        <ele>0</ele>
        <time>2019-07-14T11:09:14Z</time>
      </trkpt>
      <trkpt lat="51.226733035878" lon="4.400601184103">
        <ele>0</ele>
        <time>2019-07-14T11:09:22Z</time>
      </trkpt>
      <trkpt lat="51.226196678097" lon="4.400164403294">
        <ele>0</ele>
        <time>2019-07-14T11:09:30Z</time>
      </trkpt>
      <trkpt lat="51.225653698615" lon="4.399822673231">
        <ele>0.6</ele>
        <time>2019-07-14T11:09:38Z</time>
      </trkpt>
      <trkpt lat="51.225116921739" lon="4.399502065556">
        <ele>6</ele>
        <time>2019-07-14T11:09:47Z</time>
      </trkpt>
      <trkpt lat="51.224596154292" lon="4.399183385718">
        <ele>13</ele>
        <time>2019-07-14T11:09:57Z</time>
      </trkpt>
      <trkpt lat="51.224078991062" lon="4.398863364776">
        <ele>10.2</ele>
        <time>2019-07-14T11:10:07Z</time>
      </trkpt>
      <trkpt lat="51.223558810348" lon="4.39853194445">
        <ele>14.2</ele>
        <time>2019-07-14T11:10:17Z</time>
      </trkpt>
      <trkpt lat="51.223023709852" lon="4.398218964304">
        <ele>21.6</ele>
        <time>2019-07-14T11:10:28Z</time>
      </trkpt>
      <trkpt lat="51.222504451147" lon="4.397894836231">
        <ele>20.4</ele>
        <time>2019-07-14T11:10:37Z</time>
      </trkpt>
      <trkpt lat="51.221977397275" lon="4.397551345969">
        <ele>20.6</ele>
        <time>2019-07-14T11:10:45Z</time>
      </trkpt>
      <trkpt lat="51.221472890714" lon="4.397236270348">
        <ele>27.2</ele>
        <time>2019-07-14T11:10:55Z</time>
      </trkpt>
      <trkpt lat="51.221218751506" lon="4.397072823298">
        <ele>32.8</ele>
        <time>2019-07-14T11:11:02Z</time>
      </trkpt>
      <trkpt lat="51.220728577994" lon="4.396603353079">
        <ele>31.8</ele>
        <time>2019-07-14T11:11:13Z</time>
      </trkpt>
      <trkpt lat="51.220215438076" lon="4.396230190891">
        <ele>28.4</ele>
        <time>2019-07-14T11:11:23Z</time>
      </trkpt>
      <trkpt lat="51.219661562124" lon="4.395865913517">
        <ele>21.8</ele>
        <time>2019-07-14T11:11:33Z</time>
      </trkpt>
      <trkpt lat="51.219110787475" lon="4.395498618659">
        <ele>11.2</ele>
        <time>2019-07-14T11:11:42Z</time>
      </trkpt>
      <trkpt lat="51.218565880156" lon="4.395094443441">
        <ele>6.2</ele>
        <time>2019-07-14T11:11:51Z</time>
      </trkpt>
      <trkpt lat="51.218058523749" lon="4.394744666754">
        <ele>4.2</ele>
        <time>2019-07-14T11:11:59Z</time>
      </trkpt>
      <trkpt lat="51.217528033298" lon="4.394374102955">
        <ele>2.8</ele>
        <time>2019-07-14T11:12:07Z</time>
      </trkpt>
      <trkpt lat="51.21699058587" lon="4.393980405112">
        <ele>4.4</ele>
        <time>2019-07-14T11:12:15Z</time>
      </trkpt>
      <trkpt lat="51.216447690207" lon="4.393588048373">
        <ele>6.6</ele>
        <time>2019-07-14T11:12:23Z</time>
      </trkpt>
      <trkpt lat="51.215925581656" lon="4.393204241172">
        <ele>8.2</ele>
        <time>2019-07-14T11:12:31Z</time>
      </trkpt>
      <trkpt lat="51.215386122572" lon="4.392824541102">
        <ele>7</ele>
        <time>2019-07-14T11:12:39Z</time>
      </trkpt>
      <trkpt lat="51.214882118925" lon="4.392443835204">
        <ele>7.4</ele>
        <time>2019-07-14T11:12:47Z</time>
      </trkpt>
      <trkpt lat="51.214366296799" lon="4.391993727174">
        <ele>9</ele>
        <time>2019-07-14T11:12:56Z</time>
      </trkpt>
      <trkpt lat="51.213861874057" lon="4.391506990241">
        <ele>7.8</ele>
        <time>2019-07-14T11:13:05Z</time>
      </trkpt>
      <trkpt lat="51.213350242881" lon="4.390982786215">
        <ele>5.4</ele>
        <time>2019-07-14T11:13:14Z</time>
      </trkpt>
      <trkpt lat="51.212878090454" lon="4.390539132248">
        <ele>2.6</ele>
        <time>2019-07-14T11:13:22Z</time>
      </trkpt>
      <trkpt lat="51.212410464253" lon="4.390079720309">
        <ele>2.2</ele>
        <time>2019-07-14T11:13:30Z</time>
      </trkpt>
      <trkpt lat="51.212132017535" lon="4.389796915003">
        <ele>3.6</ele>
        <time>2019-07-14T11:13:35Z</time>
      </trkpt>
      <trkpt lat="51.212046605974" lon="4.389690800149">
        <ele>4</ele>
        <time>2019-07-14T11:13:37Z</time>
      </trkpt>
      <trkpt lat="51.211928002089" lon="4.389615446868">
        <ele>4.4</ele>
        <time>2019-07-14T11:13:40Z</time>
      </trkpt>
      <trkpt lat="51.211426932107" lon="4.389100882027">
        <ele>0.6</ele>
        <time>2019-07-14T11:13:51Z</time>
      </trkpt>
      <trkpt lat="51.21097657262" lon="4.388596124009">
        <ele>4.6</ele>
        <time>2019-07-14T11:14:01Z</time>
      </trkpt>
      <trkpt lat="51.210526548409" lon="4.388051803423">
        <ele>8.2</ele>
        <time>2019-07-14T11:14:13Z</time>
      </trkpt>
      <trkpt lat="51.210097562767" lon="4.387580740643">
        <ele>7.6</ele>
        <time>2019-07-14T11:14:26Z</time>
      </trkpt>
      <trkpt lat="51.209762202948" lon="4.388304517708">
        <ele>0</ele>
        <time>2019-07-14T11:14:46Z</time>
      </trkpt>
      <trkpt lat="51.209665978736" lon="4.38896819655">
        <ele>0.4</ele>
        <time>2019-07-14T11:15:00Z</time>
      </trkpt>
      <trkpt lat="51.209313352203" lon="4.389679149308">
        <ele>4.6</ele>
        <time>2019-07-14T11:15:15Z</time>
      </trkpt>
      <trkpt lat="51.208915631048" lon="4.39034450453">
        <ele>0.6</ele>
        <time>2019-07-14T11:15:29Z</time>
      </trkpt>
      <trkpt lat="51.208611032802" lon="4.39108043535">
        <ele>0</ele>
        <time>2019-07-14T11:15:41Z</time>
      </trkpt>
      <trkpt lat="51.208517993712" lon="4.391263579865">
        <ele>0</ele>
        <time>2019-07-14T11:15:44Z</time>
      </trkpt>
      <trkpt lat="51.208406346804" lon="4.391567088464">
        <ele>0</ele>
        <time>2019-07-14T11:15:50Z</time>
      </trkpt>
      <trkpt lat="51.208458063127" lon="4.392054663587">
        <ele>0</ele>
        <time>2019-07-14T11:15:57Z</time>
      </trkpt>
      <trkpt lat="51.208273326051" lon="4.392792689882">
        <ele>3</ele>
        <time>2019-07-14T11:16:16Z</time>
      </trkpt>
      <trkpt lat="51.208158829297" lon="4.392955969294">
        <ele>1.6</ele>
        <time>2019-07-14T11:16:25Z</time>
      </trkpt>
      <trkpt lat="51.20826167521" lon="4.393535074765">
        <ele>5</ele>
        <time>2019-07-14T11:16:42Z</time>
      </trkpt>
      <trkpt lat="51.20801860011" lon="4.39410797763">
        <ele>3</ele>
        <time>2019-07-14T11:16:51Z</time>
      </trkpt>
      <trkpt lat="51.207929668151" lon="4.394207219326">
        <ele>1.4</ele>
        <time>2019-07-14T11:16:53Z</time>
      </trkpt>
      <trkpt lat="51.207828582437" lon="4.394273436336">
        <ele>1</ele>
        <time>2019-07-14T11:16:55Z</time>
      </trkpt>
      <trkpt lat="51.207725401248" lon="4.394356836241">
        <ele>4.2</ele>
        <time>2019-07-14T11:16:58Z</time>
      </trkpt>
      <trkpt lat="51.207710062371" lon="4.394634025674">
        <ele>4.4</ele>
        <time>2019-07-14T11:17:03Z</time>
      </trkpt>
      <trkpt lat="51.207439327001" lon="4.395431563459">
        <ele>0</ele>
        <time>2019-07-14T11:17:14Z</time>
      </trkpt>
      <trkpt lat="51.207114444557" lon="4.396113514843">
        <ele>0</ele>
        <time>2019-07-14T11:17:25Z</time>
      </trkpt>
      <trkpt lat="51.207401021718" lon="4.39685388807">
        <ele>0</ele>
        <time>2019-07-14T11:17:38Z</time>
      </trkpt>
      <trkpt lat="51.207435555146" lon="4.396998978759">
        <ele>0.2</ele>
        <time>2019-07-14T11:17:40Z</time>
      </trkpt>
      <trkpt lat="51.207631607787" lon="4.397832307257">
        <ele>0</ele>
        <time>2019-07-14T11:17:55Z</time>
      </trkpt>
      <trkpt lat="51.207862948227" lon="4.398650548335">
        <ele>1.2</ele>
        <time>2019-07-14T11:18:06Z</time>
      </trkpt>
      <trkpt lat="51.207959172439" lon="4.39909939908">
        <ele>1.4</ele>
        <time>2019-07-14T11:18:12Z</time>
      </trkpt>
      <trkpt lat="51.208194955286" lon="4.399950664844">
        <ele>8.8</ele>
        <time>2019-07-14T11:18:24Z</time>
      </trkpt>
      <trkpt lat="51.208281540313" lon="4.400227183725">
        <ele>12</ele>
        <time>2019-07-14T11:18:28Z</time>
      </trkpt>
      <trkpt lat="51.208440042042" lon="4.40082271772">
        <ele>19.2</ele>
        <time>2019-07-14T11:18:36Z</time>
      </trkpt>
      <trkpt lat="51.208702479331" lon="4.401591673226">
        <ele>27.4</ele>
        <time>2019-07-14T11:18:46Z</time>
      </trkpt>
      <trkpt lat="51.208849497857" lon="4.401897864033">
        <ele>16.4</ele>
        <time>2019-07-14T11:18:50Z</time>
      </trkpt>
      <trkpt lat="51.208921246921" lon="4.402052090993">
        <ele>6.4</ele>
        <time>2019-07-14T11:18:52Z</time>
      </trkpt>
      <trkpt lat="51.209207069711" lon="4.402829009304">
        <ele>0</ele>
        <time>2019-07-14T11:19:02Z</time>
      </trkpt>
      <trkpt lat="51.20933120565" lon="4.40316964972">
        <ele>0</ele>
        <time>2019-07-14T11:19:07Z</time>
      </trkpt>
      <trkpt lat="51.209430531165" lon="4.403610118565">
        <ele>0</ele>
        <time>2019-07-14T11:19:13Z</time>
      </trkpt>
      <trkpt lat="51.209673606265" lon="4.404456690465">
        <ele>2.2</ele>
        <time>2019-07-14T11:19:26Z</time>
      </trkpt>
      <trkpt lat="51.20969162735" lon="4.404528942443">
        <ele>3.2</ele>
        <time>2019-07-14T11:19:27Z</time>
      </trkpt>
      <trkpt lat="51.209906036352" lon="4.405238721735">
        <ele>8.8</ele>
        <time>2019-07-14T11:19:36Z</time>
      </trkpt>
      <trkpt lat="51.209983066013" lon="4.405382722777">
        <ele>7.4</ele>
        <time>2019-07-14T11:19:38Z</time>
      </trkpt>
      <trkpt lat="51.210291352295" lon="4.40612678404">
        <ele>0.8</ele>
        <time>2019-07-14T11:19:50Z</time>
      </trkpt>
      <trkpt lat="51.210408698895" lon="4.406410595174">
        <ele>0</ele>
        <time>2019-07-14T11:19:54Z</time>
      </trkpt>
      <trkpt lat="51.210874481078" lon="4.406954496665">
        <ele>0</ele>
        <time>2019-07-14T11:20:04Z</time>
      </trkpt>
      <trkpt lat="51.211322074538" lon="4.407479790338">
        <ele>0</ele>
        <time>2019-07-14T11:20:16Z</time>
      </trkpt>
      <trkpt lat="51.211436571292" lon="4.407481047623">
        <ele>0.2</ele>
        <time>2019-07-14T11:20:22Z</time>
      </trkpt>
      <trkpt lat="51.211445539925" lon="4.407725296189">
        <ele>14.4</ele>
        <time>2019-07-14T11:21:57Z</time>
      </trkpt>
      <trkpt lat="51.211451742531" lon="4.407724625637">
        <ele>14.2</ele>
        <time>2019-07-14T11:21:58Z</time>
      </trkpt>
      <trkpt lat="51.211992207443" lon="4.40768414106">
        <ele>47.6</ele>
        <time>2019-07-14T11:22:17Z</time>
      </trkpt>
      <trkpt lat="51.212480453118" lon="4.407265297517">
        <ele>22.8</ele>
        <time>2019-07-14T11:22:30Z</time>
      </trkpt>
      <trkpt lat="51.213014044872" lon="4.407361940824">
        <ele>27</ele>
        <time>2019-07-14T11:22:46Z</time>
      </trkpt>
      <trkpt lat="51.213568172281" lon="4.407184244544">
        <ele>27</ele>
        <time>2019-07-14T11:22:59Z</time>
      </trkpt>
      <trkpt lat="51.213858856573" lon="4.407118530448">
        <ele>36.2</ele>
        <time>2019-07-14T11:23:07Z</time>
      </trkpt>
      <trkpt lat="51.213877464391" lon="4.407325898654">
        <ele>36.4</ele>
        <time>2019-07-14T11:23:10Z</time>
      </trkpt>
      <trkpt lat="51.213865729731" lon="4.408210943475">
        <ele>26.6</ele>
        <time>2019-07-14T11:23:21Z</time>
      </trkpt>
      <trkpt lat="51.213931695284" lon="4.409055838995">
        <ele>19.4</ele>
        <time>2019-07-14T11:23:35Z</time>
      </trkpt>
      <trkpt lat="51.213979388295" lon="4.409196571096">
        <ele>21.8</ele>
        <time>2019-07-14T11:23:42Z</time>
      </trkpt>
    </trkseg>
  </trk>
</gpx>